sensor_id;sensor_type;location;lat;lon;timestamp;P1;durP1;ratioP1;P2;durP2;ratioP2
72524;SDS011;60547;48.502;8.996;2023-07-09T00:01:47;6.68;;;2.70;;
72524;SDS011;60547;48.502;8.996;2023-07-09T00:04:13;7.25;;;3.30;;
72524;SDS011;60547;48.502;8.996;2023-07-09T00:06:38;6.28;;;3.13;;
72524;SDS011;60547;48.502;8.996;2023-07-09T00:09:05;7.75;;;3.33;;
72524;SDS011;60547;48.502;8.996;2023-07-09T00:11:37;7.63;;;2.97;;
72524;SDS011;60547;48.502;8.996;2023-07-09T00:14:04;6.65;;;3.30;;
72524;SDS011;60547;48.502;8.996;2023-07-09T00:16:30;6.00;;;2.92;;
72524;SDS011;60547;48.502;8.996;2023-07-09T00:18:56;7.70;;;3.20;;
72524;SDS011;60547;48.502;8.996;2023-07-09T00:21:22;5.65;;;2.90;;
72524;SDS011;60547;48.502;8.996;2023-07-09T00:23:47;6.80;;;3.25;;
72524;SDS011;60547;48.502;8.996;2023-07-09T00:26:16;7.30;;;3.20;;
72524;SDS011;60547;48.502;8.996;2023-07-09T00:28:45;7.35;;;3.17;;
72524;SDS011;60547;48.502;8.996;2023-07-09T00:31:12;6.57;;;3.03;;
72524;SDS011;60547;48.502;8.996;2023-07-09T00:33:40;6.82;;;3.13;;
72524;SDS011;60547;48.502;8.996;2023-07-09T00:36:11;6.82;;;3.25;;
72524;SDS011;60547;48.502;8.996;2023-07-09T00:38:40;6.65;;;3.58;;
72524;SDS011;60547;48.502;8.996;2023-07-09T00:41:08;6.18;;;3.15;;
72524;SDS011;60547;48.502;8.996;2023-07-09T00:43:44;6.57;;;3.28;;
72524;SDS011;60547;48.502;8.996;2023-07-09T00:48:48;5.40;;;2.95;;
72524;SDS011;60547;48.502;8.996;2023-07-09T00:51:19;6.45;;;3.60;;
72524;SDS011;60547;48.502;8.996;2023-07-09T00:53:46;6.10;;;3.17;;
72524;SDS011;60547;48.502;8.996;2023-07-09T00:58:57;7.18;;;3.67;;
72524;SDS011;60547;48.502;8.996;2023-07-09T01:01:29;5.80;;;3.13;;
72524;SDS011;60547;48.502;8.996;2023-07-09T01:03:58;6.85;;;3.33;;
72524;SDS011;60547;48.502;8.996;2023-07-09T01:06:30;6.70;;;3.30;;
72524;SDS011;60547;48.502;8.996;2023-07-09T01:09:00;6.30;;;3.45;;
72524;SDS011;60547;48.502;8.996;2023-07-09T01:11:27;8.07;;;3.47;;
72524;SDS011;60547;48.502;8.996;2023-07-09T01:13:53;7.40;;;3.58;;
72524;SDS011;60547;48.502;8.996;2023-07-09T01:16:20;6.32;;;3.55;;
72524;SDS011;60547;48.502;8.996;2023-07-09T01:18:52;6.80;;;3.55;;
72524;SDS011;60547;48.502;8.996;2023-07-09T01:21:18;6.65;;;3.40;;
72524;SDS011;60547;48.502;8.996;2023-07-09T01:23:45;5.68;;;3.10;;
72524;SDS011;60547;48.502;8.996;2023-07-09T01:26:18;5.85;;;3.30;;
72524;SDS011;60547;48.502;8.996;2023-07-09T01:28:46;7.70;;;3.28;;
72524;SDS011;60547;48.502;8.996;2023-07-09T01:31:13;7.32;;;3.20;;
72524;SDS011;60547;48.502;8.996;2023-07-09T01:33:40;7.03;;;3.38;;
72524;SDS011;60547;48.502;8.996;2023-07-09T01:36:09;10.57;;;3.40;;
72524;SDS011;60547;48.502;8.996;2023-07-09T01:38:39;6.57;;;3.20;;
72524;SDS011;60547;48.502;8.996;2023-07-09T01:41:05;5.88;;;3.22;;
72524;SDS011;60547;48.502;8.996;2023-07-09T01:43:31;6.65;;;3.83;;
72524;SDS011;60547;48.502;8.996;2023-07-09T01:45:57;6.53;;;3.10;;
72524;SDS011;60547;48.502;8.996;2023-07-09T01:48:24;7.15;;;3.17;;
72524;SDS011;60547;48.502;8.996;2023-07-09T01:50:51;6.03;;;3.20;;
72524;SDS011;60547;48.502;8.996;2023-07-09T01:53:18;8.18;;;3.92;;
72524;SDS011;60547;48.502;8.996;2023-07-09T01:55:49;5.35;;;3.35;;
72524;SDS011;60547;48.502;8.996;2023-07-09T01:58:17;6.28;;;3.45;;
72524;SDS011;60547;48.502;8.996;2023-07-09T02:00:43;6.07;;;3.22;;
72524;SDS011;60547;48.502;8.996;2023-07-09T02:03:10;6.00;;;3.25;;
72524;SDS011;60547;48.502;8.996;2023-07-09T02:05:36;6.43;;;3.83;;
72524;SDS011;60547;48.502;8.996;2023-07-09T02:08:03;6.72;;;3.47;;
72524;SDS011;60547;48.502;8.996;2023-07-09T02:10:28;6.43;;;3.30;;
72524;SDS011;60547;48.502;8.996;2023-07-09T02:12:54;6.93;;;3.53;;
72524;SDS011;60547;48.502;8.996;2023-07-09T02:15:20;6.30;;;3.40;;
72524;SDS011;60547;48.502;8.996;2023-07-09T02:17:45;5.22;;;3.10;;
72524;SDS011;60547;48.502;8.996;2023-07-09T02:20:11;5.43;;;3.20;;
72524;SDS011;60547;48.502;8.996;2023-07-09T02:22:38;6.40;;;3.33;;
72524;SDS011;60547;48.502;8.996;2023-07-09T02:25:05;8.30;;;3.45;;
72524;SDS011;60547;48.502;8.996;2023-07-09T02:27:31;6.53;;;3.85;;
72524;SDS011;60547;48.502;8.996;2023-07-09T02:29:58;7.53;;;3.70;;
72524;SDS011;60547;48.502;8.996;2023-07-09T02:32:27;8.85;;;4.03;;
72524;SDS011;60547;48.502;8.996;2023-07-09T02:34:53;8.93;;;3.63;;
72524;SDS011;60547;48.502;8.996;2023-07-09T02:37:20;5.85;;;3.78;;
72524;SDS011;60547;48.502;8.996;2023-07-09T02:39:47;7.82;;;3.63;;
72524;SDS011;60547;48.502;8.996;2023-07-09T02:42:14;6.22;;;3.55;;
72524;SDS011;60547;48.502;8.996;2023-07-09T02:44:41;7.40;;;3.58;;
72524;SDS011;60547;48.502;8.996;2023-07-09T02:47:08;6.90;;;3.88;;
72524;SDS011;60547;48.502;8.996;2023-07-09T02:49:34;6.35;;;3.50;;
72524;SDS011;60547;48.502;8.996;2023-07-09T02:52:00;6.78;;;3.60;;
72524;SDS011;60547;48.502;8.996;2023-07-09T02:54:26;6.97;;;3.72;;
72524;SDS011;60547;48.502;8.996;2023-07-09T02:56:51;6.45;;;3.53;;
72524;SDS011;60547;48.502;8.996;2023-07-09T02:59:17;7.80;;;4.35;;
72524;SDS011;60547;48.502;8.996;2023-07-09T03:01:43;7.20;;;3.40;;
72524;SDS011;60547;48.502;8.996;2023-07-09T03:04:08;8.05;;;3.40;;
72524;SDS011;60547;48.502;8.996;2023-07-09T03:06:35;6.78;;;3.53;;
72524;SDS011;60547;48.502;8.996;2023-07-09T03:09:05;6.25;;;3.67;;
72524;SDS011;60547;48.502;8.996;2023-07-09T03:11:31;6.35;;;3.88;;
72524;SDS011;60547;48.502;8.996;2023-07-09T03:13:58;7.10;;;3.97;;
72524;SDS011;60547;48.502;8.996;2023-07-09T03:16:28;7.72;;;3.40;;
72524;SDS011;60547;48.502;8.996;2023-07-09T03:18:55;6.57;;;3.38;;
72524;SDS011;60547;48.502;8.996;2023-07-09T03:21:22;6.25;;;3.85;;
72524;SDS011;60547;48.502;8.996;2023-07-09T03:23:49;6.80;;;3.60;;
72524;SDS011;60547;48.502;8.996;2023-07-09T03:26:15;7.95;;;4.05;;
72524;SDS011;60547;48.502;8.996;2023-07-09T03:28:41;9.73;;;3.83;;
72524;SDS011;60547;48.502;8.996;2023-07-09T03:31:06;6.72;;;3.67;;
72524;SDS011;60547;48.502;8.996;2023-07-09T03:33:33;8.30;;;4.40;;
72524;SDS011;60547;48.502;8.996;2023-07-09T03:35:58;5.72;;;3.60;;
72524;SDS011;60547;48.502;8.996;2023-07-09T03:38:24;7.45;;;3.60;;
72524;SDS011;60547;48.502;8.996;2023-07-09T03:40:50;8.38;;;4.40;;
72524;SDS011;60547;48.502;8.996;2023-07-09T03:43:16;10.70;;;4.22;;
72524;SDS011;60547;48.502;8.996;2023-07-09T03:45:43;7.18;;;3.72;;
72524;SDS011;60547;48.502;8.996;2023-07-09T03:48:09;8.65;;;4.00;;
72524;SDS011;60547;48.502;8.996;2023-07-09T03:50:35;8.52;;;4.22;;
72524;SDS011;60547;48.502;8.996;2023-07-09T03:53:00;7.97;;;3.50;;
72524;SDS011;60547;48.502;8.996;2023-07-09T03:55:26;6.53;;;3.65;;
72524;SDS011;60547;48.502;8.996;2023-07-09T03:57:55;6.50;;;3.80;;
72524;SDS011;60547;48.502;8.996;2023-07-09T04:00:21;6.85;;;3.78;;
72524;SDS011;60547;48.502;8.996;2023-07-09T04:02:47;6.60;;;3.85;;
72524;SDS011;60547;48.502;8.996;2023-07-09T04:05:13;7.10;;;3.72;;
72524;SDS011;60547;48.502;8.996;2023-07-09T04:07:39;6.95;;;3.50;;
72524;SDS011;60547;48.502;8.996;2023-07-09T04:10:05;7.93;;;3.55;;
72524;SDS011;60547;48.502;8.996;2023-07-09T04:12:31;6.50;;;3.97;;
72524;SDS011;60547;48.502;8.996;2023-07-09T04:14:57;8.02;;;4.30;;
72524;SDS011;60547;48.502;8.996;2023-07-09T04:17:23;6.40;;;3.80;;
72524;SDS011;60547;48.502;8.996;2023-07-09T04:19:49;8.48;;;3.97;;
72524;SDS011;60547;48.502;8.996;2023-07-09T04:22:15;8.02;;;3.75;;
72524;SDS011;60547;48.502;8.996;2023-07-09T04:24:41;7.63;;;4.38;;
72524;SDS011;60547;48.502;8.996;2023-07-09T04:27:07;6.68;;;3.80;;
72524;SDS011;60547;48.502;8.996;2023-07-09T04:29:33;7.15;;;4.07;;
72524;SDS011;60547;48.502;8.996;2023-07-09T04:32:00;6.97;;;3.72;;
72524;SDS011;60547;48.502;8.996;2023-07-09T04:34:33;8.48;;;4.72;;
72524;SDS011;60547;48.502;8.996;2023-07-09T04:36:59;7.57;;;4.05;;
72524;SDS011;60547;48.502;8.996;2023-07-09T04:39:24;7.03;;;4.35;;
72524;SDS011;60547;48.502;8.996;2023-07-09T04:41:50;6.95;;;4.05;;
72524;SDS011;60547;48.502;8.996;2023-07-09T04:44:15;6.07;;;4.10;;
72524;SDS011;60547;48.502;8.996;2023-07-09T04:46:41;7.28;;;4.22;;
72524;SDS011;60547;48.502;8.996;2023-07-09T04:49:06;6.57;;;4.00;;
72524;SDS011;60547;48.502;8.996;2023-07-09T04:51:32;10.25;;;4.15;;
72524;SDS011;60547;48.502;8.996;2023-07-09T04:53:58;6.95;;;3.75;;
72524;SDS011;60547;48.502;8.996;2023-07-09T04:56:25;7.88;;;3.92;;
72524;SDS011;60547;48.502;8.996;2023-07-09T04:58:50;9.40;;;4.00;;
72524;SDS011;60547;48.502;8.996;2023-07-09T05:01:16;7.28;;;3.92;;
72524;SDS011;60547;48.502;8.996;2023-07-09T05:03:41;7.25;;;3.90;;
72524;SDS011;60547;48.502;8.996;2023-07-09T05:06:07;7.43;;;3.97;;
72524;SDS011;60547;48.502;8.996;2023-07-09T05:08:32;7.85;;;3.88;;
72524;SDS011;60547;48.502;8.996;2023-07-09T05:10:58;7.30;;;4.15;;
72524;SDS011;60547;48.502;8.996;2023-07-09T05:13:24;6.93;;;3.80;;
72524;SDS011;60547;48.502;8.996;2023-07-09T05:15:49;8.07;;;4.57;;
72524;SDS011;60547;48.502;8.996;2023-07-09T05:18:16;7.03;;;3.80;;
72524;SDS011;60547;48.502;8.996;2023-07-09T05:20:42;6.93;;;4.38;;
72524;SDS011;60547;48.502;8.996;2023-07-09T05:23:08;7.05;;;4.43;;
72524;SDS011;60547;48.502;8.996;2023-07-09T05:25:35;6.75;;;3.83;;
72524;SDS011;60547;48.502;8.996;2023-07-09T05:28:01;8.20;;;4.07;;
72524;SDS011;60547;48.502;8.996;2023-07-09T05:30:26;8.68;;;4.45;;
72524;SDS011;60547;48.502;8.996;2023-07-09T05:32:52;7.53;;;4.50;;
72524;SDS011;60547;48.502;8.996;2023-07-09T05:35:21;7.22;;;3.97;;
72524;SDS011;60547;48.502;8.996;2023-07-09T05:37:46;7.47;;;3.97;;
72524;SDS011;60547;48.502;8.996;2023-07-09T05:40:12;8.50;;;4.10;;
72524;SDS011;60547;48.502;8.996;2023-07-09T05:42:38;9.35;;;4.45;;
72524;SDS011;60547;48.502;8.996;2023-07-09T05:45:03;9.23;;;5.07;;
72524;SDS011;60547;48.502;8.996;2023-07-09T05:47:29;6.82;;;4.30;;
72524;SDS011;60547;48.502;8.996;2023-07-09T05:49:55;8.18;;;4.30;;
72524;SDS011;60547;48.502;8.996;2023-07-09T05:52:21;8.55;;;4.18;;
72524;SDS011;60547;48.502;8.996;2023-07-09T05:54:48;7.45;;;4.10;;
72524;SDS011;60547;48.502;8.996;2023-07-09T05:57:15;7.70;;;4.20;;
72524;SDS011;60547;48.502;8.996;2023-07-09T05:59:40;6.18;;;4.00;;
72524;SDS011;60547;48.502;8.996;2023-07-09T06:02:13;8.25;;;4.13;;
72524;SDS011;60547;48.502;8.996;2023-07-09T06:04:40;6.93;;;4.32;;
72524;SDS011;60547;48.502;8.996;2023-07-09T06:07:07;7.10;;;4.15;;
72524;SDS011;60547;48.502;8.996;2023-07-09T06:09:34;9.50;;;4.57;;
72524;SDS011;60547;48.502;8.996;2023-07-09T06:12:01;6.40;;;4.20;;
72524;SDS011;60547;48.502;8.996;2023-07-09T06:14:27;7.68;;;4.60;;
72524;SDS011;60547;48.502;8.996;2023-07-09T06:16:52;7.20;;;4.25;;
72524;SDS011;60547;48.502;8.996;2023-07-09T06:19:18;7.85;;;4.40;;
72524;SDS011;60547;48.502;8.996;2023-07-09T06:21:43;9.32;;;4.70;;
72524;SDS011;60547;48.502;8.996;2023-07-09T06:24:09;7.93;;;4.68;;
72524;SDS011;60547;48.502;8.996;2023-07-09T06:26:35;7.70;;;4.35;;
72524;SDS011;60547;48.502;8.996;2023-07-09T06:29:01;7.07;;;4.00;;
72524;SDS011;60547;48.502;8.996;2023-07-09T06:31:26;7.38;;;3.97;;
72524;SDS011;60547;48.502;8.996;2023-07-09T06:33:52;6.20;;;3.90;;
72524;SDS011;60547;48.502;8.996;2023-07-09T06:36:18;6.05;;;3.88;;
72524;SDS011;60547;48.502;8.996;2023-07-09T06:38:44;9.10;;;4.30;;
72524;SDS011;60547;48.502;8.996;2023-07-09T06:41:10;8.23;;;4.25;;
72524;SDS011;60547;48.502;8.996;2023-07-09T06:43:36;8.02;;;4.35;;
72524;SDS011;60547;48.502;8.996;2023-07-09T06:46:04;6.75;;;4.03;;
72524;SDS011;60547;48.502;8.996;2023-07-09T06:48:30;8.50;;;4.38;;
72524;SDS011;60547;48.502;8.996;2023-07-09T06:50:56;6.32;;;3.58;;
72524;SDS011;60547;48.502;8.996;2023-07-09T06:53:23;7.38;;;3.85;;
72524;SDS011;60547;48.502;8.996;2023-07-09T06:55:50;7.75;;;4.22;;
72524;SDS011;60547;48.502;8.996;2023-07-09T06:58:16;7.20;;;4.22;;
72524;SDS011;60547;48.502;8.996;2023-07-09T07:00:42;6.63;;;3.42;;
72524;SDS011;60547;48.502;8.996;2023-07-09T07:03:08;7.80;;;4.00;;
72524;SDS011;60547;48.502;8.996;2023-07-09T07:05:34;7.90;;;3.80;;
72524;SDS011;60547;48.502;8.996;2023-07-09T07:08:00;6.55;;;3.88;;
72524;SDS011;60547;48.502;8.996;2023-07-09T07:10:27;7.18;;;4.10;;
72524;SDS011;60547;48.502;8.996;2023-07-09T07:12:52;7.25;;;3.92;;
72524;SDS011;60547;48.502;8.996;2023-07-09T07:15:19;7.25;;;3.88;;
72524;SDS011;60547;48.502;8.996;2023-07-09T07:17:45;7.15;;;3.38;;
72524;SDS011;60547;48.502;8.996;2023-07-09T07:20:11;6.63;;;3.78;;
72524;SDS011;60547;48.502;8.996;2023-07-09T07:22:38;7.68;;;4.32;;
72524;SDS011;60547;48.502;8.996;2023-07-09T07:25:04;7.13;;;3.90;;
72524;SDS011;60547;48.502;8.996;2023-07-09T07:27:31;6.35;;;3.78;;
72524;SDS011;60547;48.502;8.996;2023-07-09T07:29:56;6.40;;;3.97;;
72524;SDS011;60547;48.502;8.996;2023-07-09T07:32:23;7.03;;;3.80;;
72524;SDS011;60547;48.502;8.996;2023-07-09T07:34:48;6.35;;;3.90;;
72524;SDS011;60547;48.502;8.996;2023-07-09T07:37:14;8.45;;;3.90;;
72524;SDS011;60547;48.502;8.996;2023-07-09T07:39:40;7.35;;;3.75;;
72524;SDS011;60547;48.502;8.996;2023-07-09T07:42:07;9.30;;;3.67;;
72524;SDS011;60547;48.502;8.996;2023-07-09T07:44:32;6.15;;;3.80;;
72524;SDS011;60547;48.502;8.996;2023-07-09T07:46:58;7.07;;;3.75;;
72524;SDS011;60547;48.502;8.996;2023-07-09T07:49:23;7.13;;;3.80;;
72524;SDS011;60547;48.502;8.996;2023-07-09T07:51:54;5.90;;;3.78;;
72524;SDS011;60547;48.502;8.996;2023-07-09T07:54:29;6.30;;;3.45;;
72524;SDS011;60547;48.502;8.996;2023-07-09T07:56:59;5.93;;;3.55;;
72524;SDS011;60547;48.502;8.996;2023-07-09T07:59:28;7.47;;;3.75;;
72524;SDS011;60547;48.502;8.996;2023-07-09T08:01:55;6.18;;;3.40;;
72524;SDS011;60547;48.502;8.996;2023-07-09T08:04:20;6.30;;;3.40;;
72524;SDS011;60547;48.502;8.996;2023-07-09T08:06:46;7.10;;;3.72;;
72524;SDS011;60547;48.502;8.996;2023-07-09T08:09:11;7.65;;;3.58;;
72524;SDS011;60547;48.502;8.996;2023-07-09T08:11:37;7.30;;;3.65;;
72524;SDS011;60547;48.502;8.996;2023-07-09T08:14:02;7.32;;;4.15;;
72524;SDS011;60547;48.502;8.996;2023-07-09T08:16:29;6.30;;;3.42;;
72524;SDS011;60547;48.502;8.996;2023-07-09T08:18:54;6.80;;;3.80;;
72524;SDS011;60547;48.502;8.996;2023-07-09T08:21:21;6.47;;;3.65;;
72524;SDS011;60547;48.502;8.996;2023-07-09T08:23:46;5.63;;;3.55;;
72524;SDS011;60547;48.502;8.996;2023-07-09T08:26:12;7.20;;;3.67;;
72524;SDS011;60547;48.502;8.996;2023-07-09T08:28:37;7.60;;;3.85;;
72524;SDS011;60547;48.502;8.996;2023-07-09T08:31:03;6.88;;;3.33;;
72524;SDS011;60547;48.502;8.996;2023-07-09T08:33:29;9.13;;;3.63;;
72524;SDS011;60547;48.502;8.996;2023-07-09T08:35:55;5.22;;;3.33;;
72524;SDS011;60547;48.502;8.996;2023-07-09T08:38:21;6.18;;;3.33;;
72524;SDS011;60547;48.502;8.996;2023-07-09T08:49:38;5.38;;;2.90;;
72524;SDS011;60547;48.502;8.996;2023-07-09T08:54:52;6.07;;;2.97;;
72524;SDS011;60547;48.502;8.996;2023-07-09T08:57:21;5.82;;;3.15;;
72524;SDS011;60547;48.502;8.996;2023-07-09T08:59:51;6.93;;;3.20;;
72524;SDS011;60547;48.502;8.996;2023-07-09T09:02:33;7.03;;;2.70;;
72524;SDS011;60547;48.502;8.996;2023-07-09T09:05:05;6.57;;;3.00;;
72524;SDS011;60547;48.502;8.996;2023-07-09T09:07:34;6.18;;;2.78;;
72524;SDS011;60547;48.502;8.996;2023-07-09T09:10:05;5.97;;;2.83;;
72524;SDS011;60547;48.502;8.996;2023-07-09T09:12:37;5.25;;;2.60;;
72524;SDS011;60547;48.502;8.996;2023-07-09T09:17:38;6.05;;;2.90;;
72524;SDS011;60547;48.502;8.996;2023-07-09T09:20:06;5.78;;;2.67;;
72524;SDS011;60547;48.502;8.996;2023-07-09T09:25:22;6.75;;;3.10;;
72524;SDS011;60547;48.502;8.996;2023-07-09T09:27:52;5.28;;;2.65;;
72524;SDS011;60547;48.502;8.996;2023-07-09T09:30:19;5.70;;;2.65;;
72524;SDS011;60547;48.502;8.996;2023-07-09T09:32:54;4.88;;;2.45;;
72524;SDS011;60547;48.502;8.996;2023-07-09T09:35:28;6.32;;;2.72;;
72524;SDS011;60547;48.502;8.996;2023-07-09T09:37:56;5.40;;;2.45;;
72524;SDS011;60547;48.502;8.996;2023-07-09T09:40:23;4.93;;;2.50;;
72524;SDS011;60547;48.502;8.996;2023-07-09T09:42:51;5.07;;;2.60;;
72524;SDS011;60547;48.502;8.996;2023-07-09T09:45:26;6.65;;;2.70;;
72524;SDS011;60547;48.502;8.996;2023-07-09T09:47:57;4.32;;;2.40;;
72524;SDS011;60547;48.502;8.996;2023-07-09T09:50:24;6.80;;;2.65;;
72524;SDS011;60547;48.502;8.996;2023-07-09T09:52:52;9.15;;;2.80;;
72524;SDS011;60547;48.502;8.996;2023-07-09T09:55:19;5.32;;;3.10;;
72524;SDS011;60547;48.502;8.996;2023-07-09T09:57:48;4.90;;;2.28;;
72524;SDS011;60547;48.502;8.996;2023-07-09T10:00:15;5.03;;;2.50;;
72524;SDS011;60547;48.502;8.996;2023-07-09T10:02:42;6.28;;;3.20;;
72524;SDS011;60547;48.502;8.996;2023-07-09T10:05:13;6.22;;;2.60;;
72524;SDS011;60547;48.502;8.996;2023-07-09T10:08:16;5.53;;;2.58;;
72524;SDS011;60547;48.502;8.996;2023-07-09T10:10:51;5.95;;;3.05;;
72524;SDS011;60547;48.502;8.996;2023-07-09T10:13:20;4.93;;;2.58;;
72524;SDS011;60547;48.502;8.996;2023-07-09T10:18:49;6.20;;;2.70;;
72524;SDS011;60547;48.502;8.996;2023-07-09T10:21:37;6.82;;;2.58;;
72524;SDS011;60547;48.502;8.996;2023-07-09T10:26:56;6.15;;;3.20;;
72524;SDS011;60547;48.502;8.996;2023-07-09T10:32:42;4.93;;;2.72;;
72524;SDS011;60547;48.502;8.996;2023-07-09T10:38:02;5.32;;;2.92;;
72524;SDS011;60547;48.502;8.996;2023-07-09T10:40:39;7.40;;;2.70;;
72524;SDS011;60547;48.502;8.996;2023-07-09T10:43:10;5.35;;;2.42;;
72524;SDS011;60547;48.502;8.996;2023-07-09T10:45:48;6.95;;;2.42;;
72524;SDS011;60547;48.502;8.996;2023-07-09T10:48:29;5.82;;;2.90;;
72524;SDS011;60547;48.502;8.996;2023-07-09T10:50:56;5.55;;;2.63;;
72524;SDS011;60547;48.502;8.996;2023-07-09T10:58:44;4.95;;;2.55;;
72524;SDS011;60547;48.502;8.996;2023-07-09T11:01:19;5.00;;;2.60;;
72524;SDS011;60547;48.502;8.996;2023-07-09T11:03:56;4.93;;;2.63;;
72524;SDS011;60547;48.502;8.996;2023-07-09T11:07:00;5.55;;;2.85;;
72524;SDS011;60547;48.502;8.996;2023-07-09T11:11:50;6.00;;;2.90;;
72524;SDS011;60547;48.502;8.996;2023-07-09T11:14:22;5.07;;;2.97;;
72524;SDS011;60547;48.502;8.996;2023-07-09T11:16:54;5.60;;;2.92;;
72524;SDS011;60547;48.502;8.996;2023-07-09T11:19:22;5.60;;;2.72;;
72524;SDS011;60547;48.502;8.996;2023-07-09T11:24:47;6.68;;;2.70;;
72524;SDS011;60547;48.502;8.996;2023-07-09T11:27:20;5.47;;;2.50;;
72524;SDS011;60547;48.502;8.996;2023-07-09T11:29:49;5.18;;;2.50;;
72524;SDS011;60547;48.502;8.996;2023-07-09T11:32:22;6.00;;;2.80;;
72524;SDS011;60547;48.502;8.996;2023-07-09T11:34:51;5.40;;;3.20;;
72524;SDS011;60547;48.502;8.996;2023-07-09T11:37:17;5.43;;;2.40;;
72524;SDS011;60547;48.502;8.996;2023-07-09T11:39:47;5.90;;;3.00;;
72524;SDS011;60547;48.502;8.996;2023-07-09T11:42:27;6.45;;;3.00;;
72524;SDS011;60547;48.502;8.996;2023-07-09T11:45:17;5.68;;;2.65;;
72524;SDS011;60547;48.502;8.996;2023-07-09T11:48:01;4.72;;;2.67;;
72524;SDS011;60547;48.502;8.996;2023-07-09T11:50:43;4.50;;;2.55;;
72524;SDS011;60547;48.502;8.996;2023-07-09T11:56:01;7.18;;;2.92;;
72524;SDS011;60547;48.502;8.996;2023-07-09T11:58:27;5.82;;;2.40;;
72524;SDS011;60547;48.502;8.996;2023-07-09T12:00:57;4.55;;;2.22;;
72524;SDS011;60547;48.502;8.996;2023-07-09T12:03:24;5.72;;;2.70;;
72524;SDS011;60547;48.502;8.996;2023-07-09T12:05:54;6.35;;;2.75;;
72524;SDS011;60547;48.502;8.996;2023-07-09T12:08:25;5.22;;;2.58;;
72524;SDS011;60547;48.502;8.996;2023-07-09T12:10:54;8.02;;;3.20;;
72524;SDS011;60547;48.502;8.996;2023-07-09T12:13:19;5.57;;;2.40;;
72524;SDS011;60547;48.502;8.996;2023-07-09T12:15:45;4.97;;;2.70;;
72524;SDS011;60547;48.502;8.996;2023-07-09T12:18:12;5.97;;;2.80;;
72524;SDS011;60547;48.502;8.996;2023-07-09T12:20:39;6.07;;;2.95;;
72524;SDS011;60547;48.502;8.996;2023-07-09T12:23:09;5.93;;;2.80;;
72524;SDS011;60547;48.502;8.996;2023-07-09T12:25:46;5.40;;;2.50;;
72524;SDS011;60547;48.502;8.996;2023-07-09T12:28:14;5.32;;;2.70;;
72524;SDS011;60547;48.502;8.996;2023-07-09T12:30:44;5.00;;;2.65;;
72524;SDS011;60547;48.502;8.996;2023-07-09T12:33:23;5.60;;;2.55;;
72524;SDS011;60547;48.502;8.996;2023-07-09T12:35:55;6.15;;;2.53;;
72524;SDS011;60547;48.502;8.996;2023-07-09T12:38:23;5.82;;;2.28;;
72524;SDS011;60547;48.502;8.996;2023-07-09T12:40:51;6.05;;;2.35;;
72524;SDS011;60547;48.502;8.996;2023-07-09T12:43:19;7.00;;;2.60;;
72524;SDS011;60547;48.502;8.996;2023-07-09T12:45:50;5.57;;;2.28;;
72524;SDS011;60547;48.502;8.996;2023-07-09T12:48:15;4.57;;;2.35;;
72524;SDS011;60547;48.502;8.996;2023-07-09T12:50:41;4.93;;;2.53;;
72524;SDS011;60547;48.502;8.996;2023-07-09T12:53:16;5.75;;;2.50;;
72524;SDS011;60547;48.502;8.996;2023-07-09T12:55:46;5.28;;;2.33;;
72524;SDS011;60547;48.502;8.996;2023-07-09T12:58:21;4.95;;;2.30;;
72524;SDS011;60547;48.502;8.996;2023-07-09T13:00:53;4.65;;;2.33;;
72524;SDS011;60547;48.502;8.996;2023-07-09T13:03:21;4.82;;;2.80;;
72524;SDS011;60547;48.502;8.996;2023-07-09T13:05:58;6.25;;;2.83;;
72524;SDS011;60547;48.502;8.996;2023-07-09T13:08:29;5.15;;;2.42;;
72524;SDS011;60547;48.502;8.996;2023-07-09T13:10:57;5.20;;;2.40;;
72524;SDS011;60547;48.502;8.996;2023-07-09T13:13:24;5.95;;;2.83;;
72524;SDS011;60547;48.502;8.996;2023-07-09T13:15:57;6.65;;;2.50;;
72524;SDS011;60547;48.502;8.996;2023-07-09T13:18:26;5.72;;;2.65;;
72524;SDS011;60547;48.502;8.996;2023-07-09T13:20:55;5.20;;;2.63;;
72524;SDS011;60547;48.502;8.996;2023-07-09T13:25:51;5.40;;;2.50;;
72524;SDS011;60547;48.502;8.996;2023-07-09T13:28:22;6.82;;;2.53;;
72524;SDS011;60547;48.502;8.996;2023-07-09T13:30:53;7.15;;;2.55;;
72524;SDS011;60547;48.502;8.996;2023-07-09T13:35:48;4.38;;;2.30;;
72524;SDS011;60547;48.502;8.996;2023-07-09T13:38:15;5.15;;;2.25;;
72524;SDS011;60547;48.502;8.996;2023-07-09T13:40:42;6.65;;;2.60;;
72524;SDS011;60547;48.502;8.996;2023-07-09T13:43:11;5.40;;;2.53;;
72524;SDS011;60547;48.502;8.996;2023-07-09T13:45:57;4.35;;;2.30;;
72524;SDS011;60547;48.502;8.996;2023-07-09T13:48:24;5.40;;;2.38;;
72524;SDS011;60547;48.502;8.996;2023-07-09T13:53:20;5.15;;;2.63;;
72524;SDS011;60547;48.502;8.996;2023-07-09T13:58:15;4.47;;;2.30;;
72524;SDS011;60547;48.502;8.996;2023-07-09T14:00:44;5.75;;;2.38;;
72524;SDS011;60547;48.502;8.996;2023-07-09T14:03:18;5.30;;;2.90;;
72524;SDS011;60547;48.502;8.996;2023-07-09T14:05:49;5.85;;;2.60;;
72524;SDS011;60547;48.502;8.996;2023-07-09T14:08:15;6.45;;;2.60;;
72524;SDS011;60547;48.502;8.996;2023-07-09T14:10:42;4.32;;;2.40;;
72524;SDS011;60547;48.502;8.996;2023-07-09T14:13:15;5.25;;;2.53;;
72524;SDS011;60547;48.502;8.996;2023-07-09T14:15:41;4.63;;;2.53;;
72524;SDS011;60547;48.502;8.996;2023-07-09T14:18:14;6.13;;;2.75;;
72524;SDS011;60547;48.502;8.996;2023-07-09T14:20:44;5.65;;;2.65;;
72524;SDS011;60547;48.502;8.996;2023-07-09T14:23:14;5.72;;;2.40;;
72524;SDS011;60547;48.502;8.996;2023-07-09T14:25:41;5.35;;;2.50;;
72524;SDS011;60547;48.502;8.996;2023-07-09T14:28:18;6.68;;;2.88;;
72524;SDS011;60547;48.502;8.996;2023-07-09T14:30:45;7.57;;;2.78;;
72524;SDS011;60547;48.502;8.996;2023-07-09T14:33:14;4.97;;;2.45;;
72524;SDS011;60547;48.502;8.996;2023-07-09T14:35:41;7.88;;;2.80;;
72524;SDS011;60547;48.502;8.996;2023-07-09T14:38:18;5.68;;;2.50;;
72524;SDS011;60547;48.502;8.996;2023-07-09T14:43:16;6.22;;;2.53;;
72524;SDS011;60547;48.502;8.996;2023-07-09T14:45:42;4.90;;;2.55;;
72524;SDS011;60547;48.502;8.996;2023-07-09T14:48:11;5.70;;;2.70;;
72524;SDS011;60547;48.502;8.996;2023-07-09T14:50:38;4.50;;;2.50;;
72524;SDS011;60547;48.502;8.996;2023-07-09T14:53:13;5.97;;;2.60;;
72524;SDS011;60547;48.502;8.996;2023-07-09T14:55:40;5.10;;;2.22;;
72524;SDS011;60547;48.502;8.996;2023-07-09T14:58:19;4.95;;;2.58;;
72524;SDS011;60547;48.502;8.996;2023-07-09T15:00:46;6.75;;;2.53;;
72524;SDS011;60547;48.502;8.996;2023-07-09T15:03:18;4.55;;;2.58;;
72524;SDS011;60547;48.502;8.996;2023-07-09T15:05:45;4.68;;;2.30;;
72524;SDS011;60547;48.502;8.996;2023-07-09T15:08:18;4.80;;;2.58;;
72524;SDS011;60547;48.502;8.996;2023-07-09T15:10:49;4.68;;;2.90;;
72524;SDS011;60547;48.502;8.996;2023-07-09T15:15:50;6.20;;;2.50;;
72524;SDS011;60547;48.502;8.996;2023-07-09T15:18:16;5.55;;;2.50;;
72524;SDS011;60547;48.502;8.996;2023-07-09T15:20:49;6.65;;;2.47;;
72524;SDS011;60547;48.502;8.996;2023-07-09T15:23:19;5.93;;;2.50;;
72524;SDS011;60547;48.502;8.996;2023-07-09T15:25:47;4.93;;;2.35;;
72524;SDS011;60547;48.502;8.996;2023-07-09T15:28:13;4.50;;;2.08;;
72524;SDS011;60547;48.502;8.996;2023-07-09T15:30:39;5.63;;;2.65;;
72524;SDS011;60547;48.502;8.996;2023-07-09T15:33:08;4.50;;;2.47;;
72524;SDS011;60547;48.502;8.996;2023-07-09T15:35:51;7.07;;;3.00;;
72524;SDS011;60547;48.502;8.996;2023-07-09T15:40:42;6.40;;;2.50;;
72524;SDS011;60547;48.502;8.996;2023-07-09T15:43:08;5.35;;;2.38;;
72524;SDS011;60547;48.502;8.996;2023-07-09T15:45:37;6.10;;;2.70;;
72524;SDS011;60547;48.502;8.996;2023-07-09T15:48:09;5.18;;;2.50;;
72524;SDS011;60547;48.502;8.996;2023-07-09T15:50:45;6.80;;;3.10;;
72524;SDS011;60547;48.502;8.996;2023-07-09T15:53:11;6.07;;;2.88;;
72524;SDS011;60547;48.502;8.996;2023-07-09T15:55:36;5.90;;;2.95;;
72524;SDS011;60547;48.502;8.996;2023-07-09T15:58:02;6.78;;;2.60;;
72524;SDS011;60547;48.502;8.996;2023-07-09T16:00:28;7.28;;;2.70;;